Time;durP1;ratioP1;P1;durP2;ratioP2;P2;SDS_P1;SDS_P2;PMS_P1;PMS_P2;Temp;Humidity;BMP_temperature;BMP_pressure;BME280_temperature;BME280_humidity;BME280_pressure;Samples;Min_cycle;Max_cycle;Signal;HPM_P1;HPM_P2
2022/09/17 00:00:22;;;;;;;0.10;0.10;;;;;;;9.76;98.96;98033.00;5005649;28;20104;-67
2022/09/17 00:02:54;;;;;;;0.00;0.00;;;;;;;9.73;98.91;98030.06;5004334;28;20572;-67
2022/09/17 00:05:21;;;;;;;0.10;0.10;;;;;;;9.69;98.56;98029.91;4970524;28;20100;-66
2022/09/17 00:07:48;;;;;;;0.10;0.10;;;;;;;9.62;98.85;98030.34;5004598;28;20048;-67
2022/09/17 00:10:14;;;;;;;0.10;0.10;;;;;;;9.62;98.79;98032.25;4988366;28;20136;-65
2022/09/17 00:12:40;;;;;;;0.10;0.10;;;;;;;9.60;98.37;98026.31;5003161;28;20149;-66
2022/09/17 00:15:07;;;;;;;0.10;0.10;;;;;;;9.53;98.42;98034.16;5002851;28;20050;-68
2022/09/17 00:17:33;;;;;;;0.10;0.10;;;;;;;9.46;98.39;98027.19;5004720;28;20133;-66
2022/09/17 00:20:01;;;;;;;0.10;0.10;;;;;;;9.45;98.79;98038.44;4984685;28;20149;-67
2022/09/17 00:22:28;;;;;;;0.10;0.10;;;;;;;9.41;98.82;98040.97;5002489;28;20140;-66
2022/09/17 00:24:54;;;;;;;0.10;0.10;;;;;;;9.35;98.80;98047.63;5003264;28;20045;-67
2022/09/17 00:27:20;;;;;;;0.10;0.10;;;;;;;9.31;98.97;98049.38;4986560;28;20057;-66
2022/09/17 00:29:47;;;;;;;0.10;0.10;;;;;;;9.29;99.23;98049.72;4985496;28;20513;-68
2022/09/17 00:32:13;;;;;;;0.10;0.10;;;;;;;9.28;99.59;98048.06;4984923;28;20351;-66
2022/09/17 00:34:41;;;;;;;0.10;0.10;;;;;;;9.29;99.78;98048.88;5002210;28;20085;-66
2022/09/17 00:37:08;;;;;;;0.10;0.10;;;;;;;9.25;99.61;98053.34;5004283;28;20085;-66
2022/09/17 00:39:34;;;;;;;0.10;0.10;;;;;;;9.25;99.66;98056.88;5007735;28;20050;-66
2022/09/17 00:42:04;;;;;;;0.10;0.10;;;;;;;9.24;99.89;98057.19;5006973;28;20060;-67
2022/09/17 00:44:49;;;;;;;0.10;0.10;;;;;;;9.19;99.75;98058.91;4972832;28;20049;-66
2022/09/17 00:47:19;;;;;;;0.10;0.10;;;;;;;9.18;99.85;98053.78;4972232;28;20053;-65
2022/09/17 00:49:48;;;;;;;0.10;0.10;;;;;;;9.14;99.51;98063.69;5008233;28;20482;-66
2022/09/17 00:52:19;;;;;;;0.10;0.10;;;;;;;9.08;99.83;98066.53;5006332;28;20128;-66
2022/09/17 00:54:59;;;;;;;0.10;0.10;;;;;;;9.07;99.91;98069.56;5006549;28;20050;-66
2022/09/17 00:57:25;;;;;;;0.10;0.10;;;;;;;9.04;99.83;98078.34;5007513;28;20050;-66
2022/09/17 00:59:51;;;;;;;0.10;0.10;;;;;;;9.03;100.00;98068.56;5008336;28;20081;-67
2022/09/17 01:02:18;;;;;;;0.10;0.10;;;;;;;8.99;99.75;98064.84;5005993;28;20049;-66
2022/09/17 01:04:44;;;;;;;0.10;0.10;;;;;;;8.93;99.65;98070.41;5004633;28;20050;-66
2022/09/17 01:07:24;;;;;;;0.10;0.10;;;;;;;8.87;99.58;98065.38;5005385;28;20049;-66
2022/09/17 01:09:56;;;;;;;0.10;0.10;;;;;;;8.80;99.81;98069.31;5006713;28;20045;-66
2022/09/17 01:12:36;;;;;;;0.10;0.10;;;;;;;8.79;100.00;98066.91;5005002;28;20056;-66
2022/09/17 01:15:19;;;;;;;0.10;0.10;;;;;;;8.74;100.00;98069.72;4988228;28;20057;-66
2022/09/17 01:17:58;;;;;;;0.05;0.05;;;;;;;8.73;100.00;98073.56;5005095;28;20042;-67
2022/09/17 01:21:04;;;;;;;0.10;0.10;;;;;;;8.73;100.00;98070.81;5005792;28;20541;-66
2022/09/17 01:24:02;;;;;;;0.10;0.10;;;;;;;8.69;100.00;98076.09;4987378;28;20057;-66
2022/09/17 01:26:52;;;;;;;0.00;0.00;;;;;;;8.50;100.00;98059.88;4988488;28;20096;-66
2022/09/17 01:29:35;;;;;;;0.10;0.10;;;;;;;8.56;100.00;98077.69;5007943;28;20336;-66
2022/09/17 01:32:09;;;;;;;0.10;0.10;;;;;;;8.54;100.00;98069.03;5007931;28;20053;-66
2022/09/17 01:34:44;;;;;;;0.00;0.00;;;;;;;8.50;100.00;98078.94;4987304;28;20089;-66
2022/09/17 01:37:14;;;;;;;0.10;0.10;;;;;;;8.42;100.00;98072.25;4972292;28;20054;-67
2022/09/17 01:39:50;;;;;;;0.10;0.10;;;;;;;8.32;100.00;98062.34;4988629;28;20045;-66
2022/09/17 01:42:23;;;;;;;0.10;0.10;;;;;;;8.44;100.00;98080.13;4988746;28;20077;-67
2022/09/17 01:44:56;;;;;;;0.10;0.10;;;;;;;8.37;100.00;98080.53;5004297;28;20079;-66
2022/09/17 01:47:29;;;;;;;0.10;0.10;;;;;;;8.36;100.00;98079.69;5006658;28;20046;-67
2022/09/17 01:50:01;;;;;;;0.10;0.10;;;;;;;8.35;100.00;98080.00;5005590;28;20066;-66
2022/09/17 01:52:31;;;;;;;0.10;0.10;;;;;;;8.35;100.00;98086.25;5005831;28;20078;-66
2022/09/17 01:55:03;;;;;;;0.13;0.10;;;;;;;8.31;100.00;98082.53;5004583;28;20042;-66
2022/09/17 01:57:35;;;;;;;0.10;0.10;;;;;;;8.31;100.00;98095.31;5004628;28;20532;-67
2022/09/17 02:00:04;;;;;;;0.10;0.10;;;;;;;8.27;100.00;98095.13;4987767;28;20214;-66
2022/09/17 02:02:44;;;;;;;0.10;0.10;;;;;;;8.23;100.00;98094.09;5006530;28;20045;-66
2022/09/17 02:05:15;;;;;;;0.08;0.08;;;;;;;8.17;100.00;98101.56;5007280;28;20056;-66
2022/09/17 02:07:46;;;;;;;0.10;0.10;;;;;;;8.17;100.00;98104.28;5006708;28;20053;-66
2022/09/17 02:10:19;;;;;;;0.10;0.10;;;;;;;8.15;100.00;98105.72;4986760;28;20480;-68
2022/09/17 02:12:49;;;;;;;0.10;0.10;;;;;;;8.12;100.00;98112.56;4987147;28;20435;-66
2022/09/17 02:15:21;;;;;;;0.10;0.10;;;;;;;8.06;100.00;98111.84;4986179;28;20144;-66
2022/09/17 02:17:54;;;;;;;0.10;0.10;;;;;;;8.07;100.00;98109.94;5004993;28;20042;-66
2022/09/17 02:20:28;;;;;;;0.10;0.10;;;;;;;8.04;100.00;98118.66;5004846;28;20049;-66
2022/09/17 02:22:58;;;;;;;0.10;0.10;;;;;;;8.01;100.00;98120.09;5004557;28;20049;-66
2022/09/17 02:25:32;;;;;;;0.10;0.10;;;;;;;8.03;100.00;98117.06;5004149;28;20316;-66
2022/09/17 02:28:01;;;;;;;0.10;0.10;;;;;;;8.05;100.00;98109.44;5002403;28;20571;-66
2022/09/17 02:30:28;;;;;;;0.10;0.10;;;;;;;8.03;100.00;98114.34;4987818;28;20050;-66
2022/09/17 02:32:55;;;;;;;0.10;0.10;;;;;;;7.98;99.99;98112.53;5007546;28;20045;-67
2022/09/17 02:35:21;;;;;;;0.10;0.10;;;;;;;7.97;99.87;98112.81;5007051;28;20080;-66
2022/09/17 02:37:47;;;;;;;0.10;0.10;;;;;;;7.93;99.68;98118.88;4986859;28;20429;-66
2022/09/17 02:40:16;;;;;;;0.10;0.10;;;;;;;7.95;100.00;98115.84;5004739;28;20069;-66
2022/09/17 02:42:58;;;;;;;0.10;0.10;;;;;;;7.94;99.52;98115.03;5004756;28;20056;-66
2022/09/17 02:45:39;;;;;;;0.10;0.10;;;;;;;7.92;99.41;98119.16;5006650;28;20432;-65
2022/09/17 02:48:25;;;;;;;0.10;0.10;;;;;;;7.88;99.29;98110.81;4988267;28;20105;-66
2022/09/17 02:51:13;;;;;;;0.10;0.10;;;;;;;7.85;98.98;98124.97;5004541;28;20148;-67
2022/09/17 02:53:46;;;;;;;0.10;0.10;;;;;;;7.86;98.93;98113.00;5003200;28;20050;-65
2022/09/17 02:56:20;;;;;;;0.10;0.10;;;;;;;7.86;98.67;98123.06;5002357;28;20643;-66
2022/09/17 02:58:52;;;;;;;0.00;0.00;;;;;;;7.83;98.44;98116.31;4987334;28;20410;-65
2022/09/17 03:01:26;;;;;;;0.10;0.10;;;;;;;7.82;98.12;98128.31;4985660;28;20042;-65
2022/09/17 03:03:55;;;;;;;0.10;0.10;;;;;;;7.80;98.34;98130.50;5004381;28;20041;-66
2022/09/17 03:06:22;;;;;;;0.10;0.10;;;;;;;7.80;98.02;98130.50;5003932;28;20390;-65
2022/09/17 03:08:48;;;;;;;0.10;0.10;;;;;;;7.66;97.97;98120.38;5004192;28;20072;-65
2022/09/17 03:11:14;;;;;;;0.10;0.10;;;;;;;7.79;98.06;98139.78;5003999;28;20049;-66
2022/09/17 03:13:40;;;;;;;0.00;0.00;;;;;;;7.83;97.88;98142.72;4986082;28;20058;-66
2022/09/17 03:16:06;;;;;;;0.10;0.10;;;;;;;7.83;97.67;98140.00;5002905;28;20050;-66
2022/09/17 03:18:33;;;;;;;0.10;0.10;;;;;;;7.84;97.55;98142.41;5003386;28;20053;-71
2022/09/17 03:21:00;;;;;;;0.10;0.10;;;;;;;7.85;97.67;98144.03;5003675;28;20050;-67
2022/09/17 03:23:26;;;;;;;0.10;0.10;;;;;;;7.88;97.31;98148.06;4986016;28;20603;-66
2022/09/17 03:25:54;;;;;;;0.10;0.10;;;;;;;7.85;97.30;98141.31;5002340;28;20056;-65
2022/09/17 03:28:19;;;;;;;0.10;0.10;;;;;;;7.87;97.41;98147.25;4969712;28;20153;-66
2022/09/17 03:30:46;;;;;;;0.10;0.10;;;;;;;7.89;97.34;98161.41;5004083;28;20840;-67
2022/09/17 03:33:12;;;;;;;0.10;0.10;;;;;;;7.91;97.00;98159.19;5004476;28;20046;-66
2022/09/17 03:35:42;;;;;;;0.10;0.10;;;;;;;7.92;97.07;98158.06;5004334;28;20100;-66
2022/09/17 03:38:09;;;;;;;0.10;0.10;;;;;;;7.85;96.84;98140.50;5003979;28;20050;-66
2022/09/17 03:40:35;;;;;;;0.10;0.10;;;;;;;8.01;96.54;98160.09;5003353;28;20137;-66
2022/09/17 03:43:01;;;;;;;0.10;0.10;;;;;;;8.02;96.44;98157.09;4985700;28;20156;-67
2022/09/17 03:45:27;;;;;;;0.10;0.10;;;;;;;8.04;96.12;98163.03;5002362;28;20140;-70
2022/09/17 03:47:53;;;;;;;0.10;0.10;;;;;;;8.05;96.31;98161.94;4985946;28;20057;-66
2022/09/17 03:50:19;;;;;;;0.10;0.10;;;;;;;8.07;95.96;98167.88;5000588;28;20066;-66
2022/09/17 03:52:44;;;;;;;0.10;0.10;;;;;;;8.11;95.70;98164.56;5005885;28;20047;-66
2022/09/17 03:55:12;;;;;;;0.10;0.10;;;;;;;8.00;95.59;98142.16;5003050;28;20050;-67
2022/09/17 03:57:38;;;;;;;0.10;0.10;;;;;;;8.13;95.48;98157.72;4970902;28;20042;-66
2022/09/17 04:00:05;;;;;;;0.10;0.10;;;;;;;8.18;95.05;98165.00;5004681;28;20050;-66
2022/09/17 04:02:37;;;;;;;0.10;0.10;;;;;;;8.20;94.55;98169.06;5003957;28;20104;-65
2022/09/17 04:05:04;;;;;;;0.10;0.10;;;;;;;8.22;94.49;98177.72;5004945;28;20126;-66
2022/09/17 04:07:30;;;;;;;0.10;0.10;;;;;;;8.21;94.70;98172.56;5004311;28;20075;-65
2022/09/17 04:09:56;;;;;;;0.10;0.10;;;;;;;8.19;94.59;98178.28;4970977;28;20054;-66
2022/09/17 04:12:23;;;;;;;0.10;0.10;;;;;;;8.16;94.67;98181.63;5008847;28;20052;-67
2022/09/17 04:14:49;;;;;;;0.25;0.10;;;;;;;8.20;94.73;98168.22;5007176;28;20144;-68
2022/09/17 04:17:17;;;;;;;0.10;0.10;;;;;;;8.25;94.86;98179.03;5008702;28;20639;-66
2022/09/17 04:19:43;;;;;;;0.10;0.10;;;;;;;8.31;94.78;98185.19;4988971;28;20066;-66
2022/09/17 04:22:09;;;;;;;0.10;0.10;;;;;;;8.38;94.61;98180.19;5006924;28;20049;-66
2022/09/17 04:24:35;;;;;;;0.17;0.10;;;;;;;8.42;94.43;98174.91;5006830;28;20061;-66
2022/09/17 04:27:01;;;;;;;0.10;0.10;;;;;;;8.49;93.97;98186.25;5006663;28;20050;-66
2022/09/17 04:29:28;;;;;;;0.10;0.10;;;;;;;8.49;93.72;98197.94;5009366;28;20042;-66
2022/09/17 04:31:54;;;;;;;0.10;0.10;;;;;;;8.54;93.57;98190.81;5007539;28;20173;-65
2022/09/17 04:34:20;;;;;;;0.20;0.20;;;;;;;8.58;93.30;98191.84;4972812;28;20137;-66
2022/09/17 04:36:46;;;;;;;0.10;0.10;;;;;;;8.63;92.75;98187.09;5005587;28;20045;-65
2022/09/17 04:39:12;;;;;;;0.10;0.10;;;;;;;8.69;92.46;98193.25;4989169;28;20046;-66
2022/09/17 04:41:39;;;;;;;0.10;0.10;;;;;;;8.73;92.23;98196.16;5002710;28;20196;-65
2022/09/17 04:44:05;;;;;;;0.10;0.10;;;;;;;8.78;92.06;98194.16;5006161;28;20058;-65
2022/09/17 04:46:33;;;;;;;0.20;0.20;;;;;;;8.84;91.47;98194.09;4990497;28;20089;-66
2022/09/17 04:48:59;;;;;;;0.13;0.13;;;;;;;8.90;90.92;98199.13;4972254;28;20042;-65
2022/09/17 04:51:25;;;;;;;0.10;0.10;;;;;;;8.94;89.78;98193.88;5005304;28;20080;-64
2022/09/17 04:53:51;;;;;;;0.10;0.10;;;;;;;8.99;89.57;98198.41;4989324;28;20583;-66
2022/09/17 04:56:17;;;;;;;0.10;0.10;;;;;;;9.04;89.12;98193.66;5008647;28;20052;-67
2022/09/17 04:58:43;;;;;;;0.40;0.20;;;;;;;9.07;88.86;98193.06;4984081;28;20046;-65
2022/09/17 05:01:13;;;;;;;0.10;0.10;;;;;;;9.12;88.36;98203.06;4782755;28;10001169;-66
2022/09/17 05:03:41;;;;;;;0.10;0.10;;;;;;;9.20;87.98;98205.06;4971466;28;20273;-66
2022/09/17 05:06:07;;;;;;;0.10;0.10;;;;;;;9.25;87.23;98206.06;5002288;28;20253;-67
2022/09/17 05:08:33;;;;;;;0.10;0.10;;;;;;;9.35;87.11;98203.94;5004171;28;20050;-67
2022/09/17 05:11:00;;;;;;;0.10;0.10;;;;;;;9.44;86.48;98209.47;4986629;28;20050;-65
2022/09/17 05:13:26;;;;;;;0.17;0.17;;;;;;;9.56;85.57;98208.16;5004988;28;20076;-66
2022/09/17 05:15:54;;;;;;;0.10;0.10;;;;;;;9.64;85.28;98215.59;5002262;28;20054;-67
2022/09/17 05:18:20;;;;;;;0.32;0.10;;;;;;;9.75;85.13;98216.16;5001938;28;20541;-66
2022/09/17 05:20:48;;;;;;;0.10;0.10;;;;;;;9.81;83.76;98214.13;5000547;28;20076;-68
2022/09/17 05:23:14;;;;;;;0.20;0.20;;;;;;;9.90;83.79;98220.47;4997935;28;20639;-66
2022/09/17 05:25:40;;;;;;;0.10;0.10;;;;;;;9.94;83.26;98221.47;4985084;28;20054;-66
2022/09/17 05:28:07;;;;;;;0.10;0.10;;;;;;;10.03;82.68;98230.53;5003143;28;20053;-66
2022/09/17 05:30:33;;;;;;;0.10;0.10;;;;;;;10.14;82.46;98239.28;5003818;28;20069;-65
2022/09/17 05:33:00;;;;;;;0.20;0.20;;;;;;;10.25;81.44;98236.31;5004797;28;20405;-67
2022/09/17 05:35:26;;;;;;;0.10;0.10;;;;;;;10.28;80.38;98231.03;4987480;28;20100;-66
2022/09/17 05:37:57;;;;;;;0.20;0.20;;;;;;;10.36;79.88;98243.13;4985978;28;20070;-66
2022/09/17 05:40:23;;;;;;;0.20;0.20;;;;;;;10.35;79.51;98246.97;5002021;28;20517;-66
2022/09/17 05:42:49;;;;;;;0.13;0.13;;;;;;;10.46;79.36;98251.09;5001228;28;20080;-67
2022/09/17 05:45:15;;;;;;;0.20;0.20;;;;;;;10.52;78.64;98250.97;5005723;28;20049;-66
2022/09/17 05:47:41;;;;;;;0.20;0.20;;;;;;;10.42;78.24;98225.53;5004750;28;20053;-66
2022/09/17 05:50:08;;;;;;;0.20;0.20;;;;;;;10.67;78.55;98245.09;5004310;28;20392;-66
2022/09/17 05:52:34;;;;;;;0.30;0.30;;;;;;;10.84;78.17;98246.31;5002797;28;20049;-66
2022/09/17 05:55:02;;;;;;;0.20;0.20;;;;;;;10.93;77.40;98255.38;4967931;28;20319;-66
2022/09/17 05:57:29;;;;;;;0.20;0.20;;;;;;;10.95;77.37;98252.34;5002901;28;20046;-67
2022/09/17 05:59:55;;;;;;;0.10;0.10;;;;;;;11.01;76.54;98259.28;4984870;28;20054;-67
2022/09/17 06:02:21;;;;;;;0.20;0.20;;;;;;;10.98;76.26;98262.63;5003297;28;20544;-66
2022/09/17 06:04:47;;;;;;;0.20;0.20;;;;;;;11.02;76.43;98269.91;5006579;28;20047;-65
2022/09/17 06:07:13;;;;;;;0.20;0.20;;;;;;;11.10;75.94;98262.84;4999863;28;20049;-66
2022/09/17 06:09:42;;;;;;;0.20;0.20;;;;;;;11.21;75.95;98266.91;4995723;28;20056;-66
2022/09/17 06:12:09;;;;;;;0.20;0.20;;;;;;;11.29;75.22;98270.78;4983773;28;20061;-66
2022/09/17 06:14:35;;;;;;;0.20;0.20;;;;;;;11.33;75.42;98265.50;4972773;28;20053;-67
2022/09/17 06:17:01;;;;;;;0.20;0.20;;;;;;;11.46;74.57;98266.50;4996475;28;20129;-67
2022/09/17 06:19:27;;;;;;;0.22;0.22;;;;;;;11.55;73.90;98272.81;5006825;28;20100;-65
2022/09/17 06:21:53;;;;;;;0.30;0.30;;;;;;;11.58;73.32;98268.63;5007598;28;20077;-67
2022/09/17 06:24:19;;;;;;;0.30;0.30;;;;;;;11.69;72.89;98263.66;4990425;28;20050;-64
2022/09/17 06:26:45;;;;;;;0.30;0.30;;;;;;;11.88;72.63;98266.09;5002056;28;20046;-66
2022/09/17 06:29:14;;;;;;;0.20;0.20;;;;;;;12.10;71.84;98275.31;5004032;28;20046;-66
2022/09/17 06:31:39;;;;;;;0.20;0.20;;;;;;;12.41;70.12;98277.06;5003608;28;20046;-66
2022/09/17 06:34:05;;;;;;;0.30;0.30;;;;;;;12.65;68.05;98267.53;4951025;28;20072;-65
2022/09/17 06:36:31;;;;;;;0.30;0.30;;;;;;;12.84;67.70;98265.22;5003725;28;20184;-64
2022/09/17 06:38:58;;;;;;;0.30;0.30;;;;;;;13.01;66.27;98274.50;4967901;28;20068;-65
2022/09/17 06:41:24;;;;;;;0.30;0.30;;;;;;;13.18;65.15;98277.19;4983908;28;20042;-65
2022/09/17 06:43:52;;;;;;;0.20;0.20;;;;;;;13.42;64.77;98278.50;5000348;28;20053;-65
2022/09/17 06:46:19;;;;;;;0.20;0.20;;;;;;;13.71;63.18;98276.94;4985654;28;20496;-64
2022/09/17 06:48:45;;;;;;;0.30;0.30;;;;;;;13.92;63.02;98278.91;5003845;28;20060;-65
2022/09/17 06:51:11;;;;;;;0.28;0.28;;;;;;;13.77;61.85;98282.25;5003181;28;20053;-65
2022/09/17 06:53:37;;;;;;;0.30;0.30;;;;;;;13.63;62.36;98288.78;5002357;28;20143;-65
2022/09/17 06:56:05;;;;;;;0.30;0.30;;;;;;;13.69;62.13;98270.19;4997475;28;20446;-65
2022/09/17 06:58:31;;;;;;;0.35;0.35;;;;;;;14.00;60.95;98286.28;5006386;28;20441;-65
2022/09/17 07:00:59;;;;;;;0.30;0.30;;;;;;;14.12;59.91;98287.50;5008304;28;20065;-66
2022/09/17 07:03:28;;;;;;;0.40;0.40;;;;;;;14.11;59.92;98277.63;5009690;28;20069;-66
2022/09/17 07:05:54;;;;;;;0.52;0.30;;;;;;;14.21;58.95;98280.00;5007632;28;20383;-65
2022/09/17 07:08:20;;;;;;;0.30;0.30;;;;;;;14.12;59.20;98277.28;4989776;28;20461;-65
2022/09/17 07:10:48;;;;;;;0.38;0.38;;;;;;;14.05;58.60;98279.78;5008888;28;20058;-65
2022/09/17 07:13:14;;;;;;;0.60;0.40;;;;;;;13.92;58.56;98291.84;4973755;28;20049;-65
2022/09/17 07:15:40;;;;;;;0.40;0.40;;;;;;;13.89;59.14;98299.59;5007683;28;20050;-66
2022/09/17 07:18:10;;;;;;;0.40;0.40;;;;;;;13.89;57.90;98287.81;4987224;28;20128;-64
2022/09/17 07:20:38;;;;;;;0.38;0.38;;;;;;;13.85;59.01;98287.69;4989272;28;20105;-64
2022/09/17 07:23:04;;;;;;;0.32;0.30;;;;;;;13.85;59.00;98290.44;4979136;28;20050;-65
2022/09/17 07:25:30;;;;;;;0.52;0.40;;;;;;;13.90;58.55;98300.44;4952180;28;20056;-65
2022/09/17 07:27:55;;;;;;;0.30;0.30;;;;;;;13.90;57.99;98300.44;4993061;28;20045;-65
2022/09/17 07:30:21;;;;;;;0.30;0.30;;;;;;;13.86;58.30;98296.72;5004974;28;20049;-66
2022/09/17 07:32:47;;;;;;;0.40;0.40;;;;;;;14.13;58.84;98300.91;5004263;28;20098;-66
2022/09/17 07:35:14;;;;;;;0.40;0.40;;;;;;;14.77;56.57;98311.06;4981868;28;20222;-66
2022/09/17 07:37:41;;;;;;;0.40;0.40;;;;;;;15.36;54.97;98307.16;5003332;28;20145;-67
2022/09/17 07:40:08;;;;;;;0.40;0.40;;;;;;;15.55;52.47;98303.00;5003763;28;20049;-67
2022/09/17 07:42:34;;;;;;;0.40;0.40;;;;;;;15.29;50.93;98324.22;4990445;28;20132;-66
2022/09/17 07:45:00;;;;;;;0.40;0.40;;;;;;;15.04;51.19;98328.88;5006312;28;20058;-66
2022/09/17 07:47:25;;;;;;;0.40;0.40;;;;;;;14.77;51.62;98289.03;5003069;28;20097;-66
2022/09/17 07:49:51;;;;;;;0.40;0.40;;;;;;;14.95;51.91;98301.47;5002786;28;20163;-66
2022/09/17 07:52:17;;;;;;;0.40;0.40;;;;;;;15.28;52.00;98311.59;5005376;28;20149;-67
2022/09/17 07:54:45;;;;;;;0.40;0.40;;;;;;;15.40;50.96;98316.31;5005431;28;20076;-66
2022/09/17 07:57:11;;;;;;;;;;;;;;;15.50;49.55;98328.81;5005725;28;20077;-66
2022/09/17 07:59:37;;;;;;;0.40;0.40;;;;;;;15.54;49.39;98318.75;4986543;28;20359;-66
2022/09/17 08:02:07;;;;;;;0.40;0.40;;;;;;;15.81;47.87;98299.09;5004997;28;20597;-65
2022/09/17 08:04:33;;;;;;;0.50;0.50;;;;;;;15.98;46.80;98311.81;5001928;28;20042;-65
2022/09/17 08:06:59;;;;;;;0.40;0.40;;;;;;;16.38;46.54;98307.47;5006118;28;20575;-67
2022/09/17 08:09:25;;;;;;;0.40;0.40;;;;;;;16.67;45.24;98316.56;5006470;28;20042;-66
2022/09/17 08:11:53;;;;;;;0.50;0.50;;;;;;;17.12;45.39;98307.13;4987193;28;20157;-67
2022/09/17 08:14:18;;;;;;;0.60;0.57;;;;;;;17.66;44.71;98309.63;4987646;28;20536;-65
2022/09/17 08:16:47;;;;;;;0.50;0.50;;;;;;;17.78;43.17;98314.22;4969698;28;20794;-65
2022/09/17 08:19:13;;;;;;;0.40;0.40;;;;;;;17.71;43.39;98317.63;5005251;28;20161;-66
2022/09/17 08:21:39;;;;;;;0.40;0.40;;;;;;;17.14;44.19;98321.38;5006300;28;20543;-65
2022/09/17 08:24:05;;;;;;;0.30;0.30;;;;;;;16.67;44.74;98311.84;4989405;28;20074;-65
2022/09/17 08:26:31;;;;;;;0.30;0.30;;;;;;;16.28;45.38;98315.09;5008703;28;20425;-66
2022/09/17 08:28:59;;;;;;;0.40;0.40;;;;;;;16.50;44.49;98307.44;5002318;28;20057;-66
2022/09/17 08:31:29;;;;;;;;;;;;;;;16.69;44.19;98309.53;5026144;28;20650;-65
2022/09/17 08:33:55;;;;;;;0.50;0.50;;;;;;;17.36;43.32;98305.38;5008301;28;20048;-65
2022/09/17 08:36:25;;;;;;;0.40;0.40;;;;;;;17.67;42.05;98312.03;5026006;28;20465;-66
2022/09/17 08:38:52;;;;;;;0.75;0.50;;;;;;;17.38;41.87;98305.81;5026194;28;20041;-65
2022/09/17 08:41:28;;;;;;;0.50;0.50;;;;;;;17.19;42.21;98301.00;5012889;28;20440;-66
2022/09/17 08:44:07;;;;;;;0.52;0.52;;;;;;;17.05;42.27;98306.16;5008007;28;20439;-65
2022/09/17 08:46:41;;;;;;;1.23;0.60;;;;;;;17.50;42.80;98309.66;5006536;28;20270;-66
2022/09/17 08:49:15;;;;;;;0.60;0.60;;;;;;;18.07;41.19;98324.03;5007133;28;20054;-66
2022/09/17 08:51:50;;;;;;;0.50;0.50;;;;;;;18.28;40.53;98326.44;4989880;28;20064;-66
2022/09/17 08:54:26;;;;;;;0.50;0.50;;;;;;;18.51;40.55;98313.88;5005720;28;20522;-68
2022/09/17 08:57:07;;;;;;;0.60;0.60;;;;;;;19.01;38.54;98329.88;5019120;28;20073;-66
2022/09/17 08:59:42;;;;;;;0.60;0.60;;;;;;;18.79;38.72;98319.16;4980589;28;20191;-70
2022/09/17 09:02:22;;;;;;;0.60;0.60;;;;;;;18.98;38.09;98329.41;5008898;28;20073;-67
2022/09/17 09:05:01;;;;;;;0.82;0.70;;;;;;;19.04;37.70;98313.28;4990149;28;20046;-66
2022/09/17 09:07:33;;;;;;;0.68;0.60;;;;;;;19.46;37.26;98338.56;4991425;28;20488;-66
2022/09/17 09:10:12;;;;;;;0.60;0.60;;;;;;;19.48;36.73;98331.47;5009137;28;20042;-66
2022/09/17 09:12:39;;;;;;;0.60;0.60;;;;;;;19.34;36.27;98337.56;5010059;28;20060;-67
2022/09/17 09:15:16;;;;;;;;;;;;;;;19.21;36.46;98323.09;5013869;28;20037;-67
2022/09/17 09:17:43;;;;;;;;;;;;;;;19.02;36.15;98325.94;5029361;28;20446;-66
2022/09/17 09:20:16;;;;;;;0.70;0.70;;;;;;;18.65;35.98;98327.97;5014313;28;19967;-66
2022/09/17 09:22:49;;;;;;;0.40;0.40;;;;;;;19.11;36.03;98332.00;5014321;28;20055;-66
2022/09/17 09:25:23;;;;;;;0.30;0.30;;;;;;;18.94;35.96;98358.19;5030961;28;20124;-66
2022/09/17 09:28:14;;;;;;;0.30;0.30;;;;;;;18.60;36.76;98330.25;5018815;28;20129;-67
2022/09/17 09:30:59;;;;;;;0.90;0.90;;;;;;;18.90;36.51;98335.97;5009723;28;20417;-66
2022/09/17 09:33:29;;;;;;;0.80;0.80;;;;;;;19.32;33.90;98334.38;4972694;28;20070;-65
2022/09/17 09:35:55;;;;;;;0.90;0.90;;;;;;;19.79;33.85;98329.59;4979875;28;20543;-65
2022/09/17 09:38:29;;;;;;;0.90;0.90;;;;;;;20.80;32.18;98338.50;5008985;28;20046;-65
2022/09/17 09:40:59;;;;;;;1.00;1.00;;;;;;;21.44;31.07;98349.84;5008443;28;20128;-66
2022/09/17 09:43:34;;;;;;;1.00;1.00;;;;;;;21.78;30.76;98328.31;5007850;28;20520;-65
2022/09/17 09:46:18;;;;;;;0.90;0.90;;;;;;;22.09;30.87;98337.25;4990024;28;20072;-65
2022/09/17 09:48:56;;;;;;;0.30;0.30;;;;;;;21.81;29.29;98346.19;5009122;28;20117;-65
2022/09/17 09:51:34;;;;;;;1.00;1.00;;;;;;;21.00;31.29;98374.41;4987154;28;20521;-64
2022/09/17 09:54:19;;;;;;;1.00;1.00;;;;;;;19.93;33.16;98356.75;5005185;28;20053;-65
2022/09/17 09:56:55;;;;;;;0.40;0.40;;;;;;;19.88;32.76;98348.72;5009894;28;20104;-67
2022/09/17 09:59:22;;;;;;;0.30;0.30;;;;;;;19.69;33.29;98358.75;4992030;28;20199;-66
2022/09/17 10:01:49;;;;;;;0.30;0.30;;;;;;;18.73;34.76;98342.75;5007994;28;20677;-66
2022/09/17 10:04:21;;;;;;;0.40;0.40;;;;;;;18.16;35.81;98350.66;4988849;28;20085;-66
2022/09/17 10:06:49;;;;;;;0.30;0.30;;;;;;;18.88;34.50;98349.38;4993377;28;20053;-65
2022/09/17 10:09:20;;;;;;;0.30;0.30;;;;;;;18.15;36.05;98349.88;5004830;28;20056;-65
2022/09/17 10:11:59;;;;;;;0.30;0.30;;;;;;;17.57;36.59;98357.59;5005937;28;20086;-66
2022/09/17 10:14:27;;;;;;;0.30;0.30;;;;;;;16.92;37.35;98349.56;4992463;28;20045;-66
2022/09/17 10:17:14;;;;;;;1.20;1.20;;;;;;;16.90;37.66;98360.94;5006901;28;20897;-66
2022/09/17 10:19:40;;;;;;;0.30;0.30;;;;;;;18.15;35.26;98360.94;4989909;28;20050;-67
2022/09/17 10:22:22;;;;;;;0.52;0.52;;;;;;;18.61;34.63;98357.53;5008021;28;20046;-65
2022/09/17 10:24:50;;;;;;;0.60;0.60;;;;;;;18.28;35.00;98384.53;5009615;28;20406;-65
2022/09/17 10:27:18;;;;;;;0.30;0.30;;;;;;;17.63;35.26;98349.03;5009125;28;20053;-66
2022/09/17 10:29:47;;;;;;;0.30;0.30;;;;;;;16.93;37.64;98351.16;4985884;28;20200;-67
2022/09/17 10:32:16;;;;;;;0.30;0.30;;;;;;;16.64;38.53;98377.97;4986215;28;20092;-66
2022/09/17 10:34:57;;;;;;;1.10;1.10;;;;;;;17.05;38.45;98372.41;5008434;28;20045;-66
2022/09/17 10:37:34;;;;;;;0.40;0.40;;;;;;;18.70;34.92;98401.63;4990269;28;20049;-66
2022/09/17 10:40:00;;;;;;;0.50;0.50;;;;;;;18.16;34.98;98357.00;4988189;28;20537;-66
2022/09/17 10:42:26;;;;;;;0.30;0.30;;;;;;;17.70;36.58;98366.59;5006034;28;20046;-65
2022/09/17 10:44:54;;;;;;;0.30;0.30;;;;;;;17.17;37.40;98368.78;4990730;28;20042;-67
2022/09/17 10:47:24;;;;;;;0.30;0.30;;;;;;;16.63;36.56;98382.69;5007762;28;20383;-64
2022/09/17 10:49:55;;;;;;;0.30;0.30;;;;;;;16.08;36.91;98373.94;5005657;28;20579;-66
2022/09/17 10:52:25;;;;;;;0.30;0.30;;;;;;;15.73;38.45;98372.47;4990522;28;20068;-66
2022/09/17 10:55:15;;;;;;;0.30;0.30;;;;;;;15.63;38.57;98395.75;5007389;28;20037;-66
2022/09/17 10:57:54;;;;;;;0.25;0.25;;;;;;;15.37;39.88;98407.88;5007533;28;20049;-66
2022/09/17 11:00:22;;;;;;;0.30;0.30;;;;;;;15.06;40.84;98397.34;5008239;28;20100;-66
2022/09/17 11:03:28;;;;;;;0.20;0.20;;;;;;;14.92;41.88;98395.72;5004998;28;20553;-66
2022/09/17 11:06:18;;;;;;;0.30;0.30;;;;;;;14.83;43.15;98436.25;5006425;28;20078;-66
2022/09/17 11:08:53;;;;;;;0.28;0.28;;;;;;;14.63;53.95;98476.34;4988789;28;20096;-65
2022/09/17 11:11:33;;;;;;;1.30;1.20;;;;;;;14.83;51.78;98426.06;5006163;28;20054;-66
2022/09/17 11:14:13;;;;;;;1.30;1.20;;;;;;;16.57;45.45;98408.91;5006112;28;20050;-66
2022/09/17 11:16:49;;;;;;;0.60;0.60;;;;;;;18.46;39.79;98400.72;5005339;28;20518;-66
2022/09/17 11:19:27;;;;;;;0.40;0.40;;;;;;;18.33;39.92;98397.28;5002353;28;20050;-66
2022/09/17 11:22:04;;;;;;;0.40;0.40;;;;;;;17.82;41.08;98381.47;5002932;28;20085;-66
2022/09/17 11:24:58;;;;;;;0.30;0.30;;;;;;;17.08;41.80;98393.78;4968147;28;20096;-66
2022/09/17 11:27:46;;;;;;;0.35;0.30;;;;;;;16.16;43.67;98397.84;4985989;28;20050;-66
2022/09/17 11:30:18;;;;;;;0.30;0.30;;;;;;;15.87;44.54;98389.47;4986117;28;20608;-66
2022/09/17 11:33:07;;;;;;;0.47;0.47;;;;;;;16.15;44.53;98401.75;5004674;28;20586;-65
2022/09/17 11:35:39;;;;;;;1.42;1.30;;;;;;;17.42;42.34;98402.59;5002086;28;20046;-65
2022/09/17 11:38:09;;;;;;;1.40;1.30;;;;;;;19.75;37.55;98400.00;5002227;28;20048;-66
2022/09/17 11:40:41;;;;;;;1.40;1.30;;;;;;;21.57;34.45;98397.59;4983985;28;20050;-63
2022/09/17 11:43:17;;;;;;;1.33;1.23;;;;;;;22.79;31.81;98388.50;4985340;28;20140;-66
2022/09/17 11:45:55;;;;;;;1.40;1.30;;;;;;;23.56;30.15;98386.72;4978715;28;20042;-67
2022/09/17 11:48:31;;;;;;;1.38;1.27;;;;;;;24.29;28.98;98379.13;4985854;28;20513;-65
2022/09/17 11:51:06;;;;;;;1.40;1.30;;;;;;;24.12;28.41;98375.97;4971618;28;20501;-66